sensor_id;sensor_type;location;lat;lon;timestamp;pressure;altitude;pressure_sealevel;temperature;humidity
11314;BME280;5712;48.858;9.206;2022-11-18T00:01:33;96370.75;;;8.50;100.00
11314;BME280;5712;48.858;9.206;2022-11-18T00:04:00;96372.84;;;8.56;100.00
11314;BME280;5712;48.858;9.206;2022-11-18T00:06:28;96363.81;;;8.58;100.00
11314;BME280;5712;48.858;9.206;2022-11-18T00:08:55;96365.50;;;8.59;100.00
11314;BME280;5712;48.858;9.206;2022-11-18T00:11:24;96366.31;;;8.60;100.00
11314;BME280;5712;48.858;9.206;2022-11-18T00:14:11;96355.25;;;8.66;100.00
11314;BME280;5712;48.858;9.206;2022-11-18T00:16:44;96364.69;;;8.68;100.00
11314;BME280;5712;48.858;9.206;2022-11-18T00:19:11;96359.16;;;8.71;100.00
11314;BME280;5712;48.858;9.206;2022-11-18T00:21:37;96363.03;;;8.77;100.00
11314;BME280;5712;48.858;9.206;2022-11-18T00:24:04;96359.72;;;8.75;100.00
11314;BME280;5712;48.858;9.206;2022-11-18T00:26:31;96357.75;;;8.77;100.00
11314;BME280;5712;48.858;9.206;2022-11-18T00:28:58;96361.38;;;8.76;100.00
11314;BME280;5712;48.858;9.206;2022-11-18T00:31:26;96359.41;;;8.78;100.00
11314;BME280;5712;48.858;9.206;2022-11-18T00:33:52;96356.91;;;8.76;100.00
11314;BME280;5712;48.858;9.206;2022-11-18T00:36:19;96361.38;;;8.76;100.00
11314;BME280;5712;48.858;9.206;2022-11-18T00:38:46;96359.00;;;8.73;100.00
11314;BME280;5712;48.858;9.206;2022-11-18T00:41:14;96354.69;;;8.72;100.00
11314;BME280;5712;48.858;9.206;2022-11-18T00:43:41;96360.50;;;8.66;100.00
11314;BME280;5712;48.858;9.206;2022-11-18T00:46:08;96361.19;;;8.58;100.00
11314;BME280;5712;48.858;9.206;2022-11-18T00:48:36;96371.44;;;8.52;100.00
11314;BME280;5712;48.858;9.206;2022-11-18T00:51:08;96374.06;;;8.42;100.00
11314;BME280;5712;48.858;9.206;2022-11-18T00:53:36;96370.72;;;8.40;100.00
11314;BME280;5712;48.858;9.206;2022-11-18T00:56:02;96366.31;;;8.41;100.00
11314;BME280;5712;48.858;9.206;2022-11-18T00:58:29;96374.88;;;8.43;100.00
11314;BME280;5712;48.858;9.206;2022-11-18T01:00:56;96372.25;;;8.43;100.00
11314;BME280;5712;48.858;9.206;2022-11-18T01:03:23;96371.56;;;8.41;100.00
11314;BME280;5712;48.858;9.206;2022-11-18T01:05:51;96375.03;;;8.41;100.00
11314;BME280;5712;48.858;9.206;2022-11-18T01:08:18;96375.72;;;8.43;100.00
11314;BME280;5712;48.858;9.206;2022-11-18T01:10:46;96380.56;;;8.48;100.00
11314;BME280;5712;48.858;9.206;2022-11-18T01:13:16;96387.09;;;8.44;100.00
11314;BME280;5712;48.858;9.206;2022-11-18T01:15:46;96385.41;;;8.43;100.00
11314;BME280;5712;48.858;9.206;2022-11-18T01:18:14;96382.94;;;8.41;100.00
11314;BME280;5712;48.858;9.206;2022-11-18T01:20:41;96386.38;;;8.42;100.00
11314;BME280;5712;48.858;9.206;2022-11-18T01:23:09;96386.38;;;8.42;100.00
11314;BME280;5712;48.858;9.206;2022-11-18T01:25:37;96379.34;;;8.42;100.00
11314;BME280;5712;48.858;9.206;2022-11-18T01:28:04;96394.28;;;8.42;100.00
11314;BME280;5712;48.858;9.206;2022-11-18T01:30:33;96391.78;;;8.40;100.00
11314;BME280;5712;48.858;9.206;2022-11-18T01:33:00;96389.00;;;8.42;100.00
11314;BME280;5712;48.858;9.206;2022-11-18T01:35:28;96387.34;;;8.41;100.00
11314;BME280;5712;48.858;9.206;2022-11-18T01:37:55;96389.00;;;8.42;100.00
11314;BME280;5712;48.858;9.206;2022-11-18T01:40:25;96385.00;;;8.38;100.00
11314;BME280;5712;48.858;9.206;2022-11-18T01:42:53;96393.16;;;8.35;100.00
11314;BME280;5712;48.858;9.206;2022-11-18T01:45:30;96393.44;;;8.32;100.00
11314;BME280;5712;48.858;9.206;2022-11-18T01:48:03;96396.06;;;8.32;100.00
11314;BME280;5712;48.858;9.206;2022-11-18T01:50:31;96399.28;;;8.35;100.00
11314;BME280;5712;48.858;9.206;2022-11-18T01:53:03;96396.75;;;8.34;100.00
11314;BME280;5712;48.858;9.206;2022-11-18T01:55:34;96397.44;;;8.36;100.00
11314;BME280;5712;48.858;9.206;2022-11-18T01:58:06;96400.94;;;8.36;100.00
11314;BME280;5712;48.858;9.206;2022-11-18T02:00:35;96391.75;;;8.31;100.00
11314;BME280;5712;48.858;9.206;2022-11-18T02:03:03;96403.00;;;8.33;100.00
11314;BME280;5712;48.858;9.206;2022-11-18T02:05:30;96408.94;;;8.35;100.00
11314;BME280;5712;48.858;9.206;2022-11-18T02:07:59;96404.78;;;8.32;100.00
11314;BME280;5712;48.858;9.206;2022-11-18T02:10:26;96410.19;;;8.31;100.00
11314;BME280;5712;48.858;9.206;2022-11-18T02:12:55;96415.44;;;8.31;100.00
11314;BME280;5712;48.858;9.206;2022-11-18T02:15:27;96412.56;;;8.34;100.00
11314;BME280;5712;48.858;9.206;2022-11-18T02:18:02;96416.97;;;8.33;100.00
11314;BME280;5712;48.858;9.206;2022-11-18T02:20:35;96417.81;;;8.34;100.00
11314;BME280;5712;48.858;9.206;2022-11-18T02:23:33;96422.97;;;8.35;100.00
11314;BME280;5712;48.858;9.206;2022-11-18T02:26:27;96427.66;;;8.32;100.00
11314;BME280;5712;48.858;9.206;2022-11-18T02:29:06;96430.00;;;8.35;100.00
11314;BME280;5712;48.858;9.206;2022-11-18T02:31:40;96421.44;;;8.33;100.00
11314;BME280;5712;48.858;9.206;2022-11-18T02:34:16;96421.44;;;8.33;100.00
11314;BME280;5712;48.858;9.206;2022-11-18T02:36:49;96425.28;;;8.29;100.00
11314;BME280;5712;48.858;9.206;2022-11-18T02:39:21;96419.75;;;8.32;100.00
11314;BME280;5712;48.858;9.206;2022-11-18T02:41:49;96425.84;;;8.32;100.00
11314;BME280;5712;48.858;9.206;2022-11-18T02:44:19;96427.66;;;8.32;100.00
11314;BME280;5712;48.858;9.206;2022-11-18T02:46:51;96425.03;;;8.32;100.00
11314;BME280;5712;48.858;9.206;2022-11-18T02:49:22;96428.34;;;8.34;100.00
11314;BME280;5712;48.858;9.206;2022-11-18T02:51:52;96428.34;;;8.34;100.00
11314;BME280;5712;48.858;9.206;2022-11-18T02:54:21;96428.47;;;8.32;100.00
11314;BME280;5712;48.858;9.206;2022-11-18T02:56:51;96431.94;;;8.33;100.00
11314;BME280;5712;48.858;9.206;2022-11-18T02:59:19;96439.84;;;8.33;100.00
11314;BME280;5712;48.858;9.206;2022-11-18T03:01:46;96440.81;;;8.32;100.00
11314;BME280;5712;48.858;9.206;2022-11-18T03:04:15;96443.44;;;8.32;100.00
11314;BME280;5712;48.858;9.206;2022-11-18T03:06:47;96445.22;;;8.31;100.00
11314;BME280;5712;48.858;9.206;2022-11-18T03:09:19;96453.09;;;8.22;100.00
11314;BME280;5712;48.858;9.206;2022-11-18T03:11:53;96453.22;;;8.20;100.00
11314;BME280;5712;48.858;9.206;2022-11-18T03:14:27;96457.19;;;8.15;100.00
11314;BME280;5712;48.858;9.206;2022-11-18T03:17:02;96463.41;;;8.14;100.00
11314;BME280;5712;48.858;9.206;2022-11-18T03:19:41;96468.13;;;8.10;100.00
11314;BME280;5712;48.858;9.206;2022-11-18T03:22:19;96471.84;;;8.08;100.00
11314;BME280;5712;48.858;9.206;2022-11-18T03:24:53;96477.22;;;8.06;100.00
11314;BME280;5712;48.858;9.206;2022-11-18T03:27:26;96485.50;;;8.02;100.00
11314;BME280;5712;48.858;9.206;2022-11-18T03:29:58;96486.91;;;8.06;100.00
11314;BME280;5712;48.858;9.206;2022-11-18T03:32:29;96486.91;;;8.06;100.00
11314;BME280;5712;48.858;9.206;2022-11-18T03:35:00;96493.31;;;8.13;100.00
11314;BME280;5712;48.858;9.206;2022-11-18T03:37:32;96507.44;;;8.12;100.00
11314;BME280;5712;48.858;9.206;2022-11-18T03:40:03;96508.00;;;8.15;100.00
11314;BME280;5712;48.858;9.206;2022-11-18T03:42:34;96503.56;;;8.16;100.00
11314;BME280;5712;48.858;9.206;2022-11-18T03:45:09;96516.84;;;8.14;100.00
11314;BME280;5712;48.858;9.206;2022-11-18T03:47:40;96516.75;;;8.16;100.00
11314;BME280;5712;48.858;9.206;2022-11-18T03:50:11;96527.94;;;8.18;100.00
11314;BME280;5712;48.858;9.206;2022-11-18T03:52:40;96526.78;;;8.22;100.00
11314;BME280;5712;48.858;9.206;2022-11-18T03:55:10;96531.75;;;8.25;100.00
11314;BME280;5712;48.858;9.206;2022-11-18T03:57:44;96524.34;;;8.19;100.00
11314;BME280;5712;48.858;9.206;2022-11-18T04:00:15;96533.22;;;8.18;100.00
11314;BME280;5712;48.858;9.206;2022-11-18T04:02:46;96536.53;;;8.10;100.00
11314;BME280;5712;48.858;9.206;2022-11-18T04:05:15;96545.91;;;8.13;100.00
11314;BME280;5712;48.858;9.206;2022-11-18T04:07:50;96541.44;;;8.04;100.00
11314;BME280;5712;48.858;9.206;2022-11-18T04:10:21;96534.78;;;8.00;100.00
11314;BME280;5712;48.858;9.206;2022-11-18T04:12:53;96551.63;;;7.97;100.00
11314;BME280;5712;48.858;9.206;2022-11-18T04:15:25;96545.28;;;8.00;100.00
11314;BME280;5712;48.858;9.206;2022-11-18T04:17:51;96557.75;;;7.98;100.00
11314;BME280;5712;48.858;9.206;2022-11-18T04:20:20;96547.91;;;8.00;100.00
11314;BME280;5712;48.858;9.206;2022-11-18T04:22:47;96551.63;;;7.97;100.00
11314;BME280;5712;48.858;9.206;2022-11-18T04:25:14;96554.44;;;7.96;100.00
11314;BME280;5712;48.858;9.206;2022-11-18T04:27:40;96557.41;;;7.91;100.00
11314;BME280;5712;48.858;9.206;2022-11-18T04:30:08;96554.66;;;7.93;100.00
11314;BME280;5712;48.858;9.206;2022-11-18T04:32:37;96558.53;;;7.89;100.00
11314;BME280;5712;48.858;9.206;2022-11-18T04:35:04;96558.38;;;7.90;100.00
11314;BME280;5712;48.858;9.206;2022-11-18T04:37:31;96557.81;;;7.87;100.00
11314;BME280;5712;48.858;9.206;2022-11-18T04:39:57;96561.91;;;7.80;100.00
11314;BME280;5712;48.858;9.206;2022-11-18T04:42:24;96559.56;;;7.77;100.00
11314;BME280;5712;48.858;9.206;2022-11-18T04:44:51;96563.25;;;7.74;100.00
11314;BME280;5712;48.858;9.206;2022-11-18T04:47:17;96557.63;;;7.79;100.00
11314;BME280;5712;48.858;9.206;2022-11-18T04:49:45;96552.28;;;7.69;100.00
11314;BME280;5712;48.858;9.206;2022-11-18T04:52:13;96549.91;;;7.66;100.00
11314;BME280;5712;48.858;9.206;2022-11-18T04:54:39;96552.69;;;7.65;100.00
11314;BME280;5712;48.858;9.206;2022-11-18T04:57:06;96563.19;;;7.65;100.00
11314;BME280;5712;48.858;9.206;2022-11-18T04:59:33;96560.78;;;7.62;100.00
11314;BME280;5712;48.858;9.206;2022-11-18T05:01:59;96559.97;;;7.61;100.00
11314;BME280;5712;48.858;9.206;2022-11-18T05:04:28;96566.06;;;7.62;100.00
11314;BME280;5712;48.858;9.206;2022-11-18T05:06:57;96576.56;;;7.62;100.00
11314;BME280;5712;48.858;9.206;2022-11-18T05:09:24;96574.91;;;7.61;100.00
11314;BME280;5712;48.858;9.206;2022-11-18T05:11:51;96580.16;;;7.61;100.00
11314;BME280;5712;48.858;9.206;2022-11-18T05:14:35;96581.59;;;7.65;100.00
11314;BME280;5712;48.858;9.206;2022-11-18T05:17:03;96581.59;;;7.65;100.00
11314;BME280;5712;48.858;9.206;2022-11-18T05:19:30;96587.09;;;7.62;100.00
11314;BME280;5712;48.858;9.206;2022-11-18T05:21:58;96595.94;;;7.61;100.00
11314;BME280;5712;48.858;9.206;2022-11-18T05:24:25;96584.75;;;7.48;100.00
11314;BME280;5712;48.858;9.206;2022-11-18T05:26:53;96592.19;;;7.43;100.00
11314;BME280;5712;48.858;9.206;2022-11-18T05:29:20;96598.63;;;7.39;100.00
11314;BME280;5712;48.858;9.206;2022-11-18T05:31:47;96590.41;;;7.32;100.00
11314;BME280;5712;48.858;9.206;2022-11-18T05:34:14;96597.13;;;7.26;100.00
11314;BME280;5712;48.858;9.206;2022-11-18T05:36:41;96593.91;;;7.22;100.00
11314;BME280;5712;48.858;9.206;2022-11-18T05:39:09;96602.25;;;7.27;100.00
11314;BME280;5712;48.858;9.206;2022-11-18T05:41:36;96602.00;;;7.30;100.00
11314;BME280;5712;48.858;9.206;2022-11-18T05:44:20;96608.94;;;7.31;100.00
11314;BME280;5712;48.858;9.206;2022-11-18T05:46:47;96610.84;;;7.29;100.00
11314;BME280;5712;48.858;9.206;2022-11-18T05:49:13;96621.09;;;7.32;100.00
11314;BME280;5712;48.858;9.206;2022-11-18T05:51:40;96619.91;;;7.36;100.00
11314;BME280;5712;48.858;9.206;2022-11-18T05:54:08;96618.09;;;7.36;100.00
11314;BME280;5712;48.858;9.206;2022-11-18T05:56:40;96617.16;;;7.38;100.00
11314;BME280;5712;48.858;9.206;2022-11-18T05:59:09;96611.53;;;7.42;100.00
11314;BME280;5712;48.858;9.206;2022-11-18T06:01:39;96621.19;;;7.41;100.00
11314;BME280;5712;48.858;9.206;2022-11-18T06:04:12;96623.94;;;7.40;100.00
11314;BME280;5712;48.858;9.206;2022-11-18T06:06:41;96626.72;;;7.38;100.00
11314;BME280;5712;48.858;9.206;2022-11-18T06:09:09;96630.06;;;7.40;100.00
11314;BME280;5712;48.858;9.206;2022-11-18T06:11:40;96633.38;;;7.42;100.00
11314;BME280;5712;48.858;9.206;2022-11-18T06:14:11;96638.28;;;7.47;100.00
11314;BME280;5712;48.858;9.206;2022-11-18T06:16:43;96632.31;;;7.45;100.00
11314;BME280;5712;48.858;9.206;2022-11-18T06:19:11;96637.81;;;7.42;100.00
11314;BME280;5712;48.858;9.206;2022-11-18T06:21:38;96643.31;;;7.39;100.00
11314;BME280;5712;48.858;9.206;2022-11-18T06:24:05;96634.47;;;7.40;100.00
11314;BME280;5712;48.858;9.206;2022-11-18T06:26:34;96642.72;;;7.35;100.00
11314;BME280;5712;48.858;9.206;2022-11-18T06:29:03;96646.91;;;7.38;100.00
11314;BME280;5712;48.858;9.206;2022-11-18T06:31:30;96644.25;;;7.38;100.00
11314;BME280;5712;48.858;9.206;2022-11-18T06:33:57;96651.06;;;7.40;100.00
11314;BME280;5712;48.858;9.206;2022-11-18T06:36:24;96650.22;;;7.40;100.00
11314;BME280;5712;48.858;9.206;2022-11-18T06:38:50;96663.03;;;7.44;100.00
11314;BME280;5712;48.858;9.206;2022-11-18T06:41:17;96661.94;;;7.47;100.00
11314;BME280;5712;48.858;9.206;2022-11-18T06:43:44;96668.38;;;7.54;100.00
11314;BME280;5712;48.858;9.206;2022-11-18T06:46:13;96669.78;;;7.58;100.00
11314;BME280;5712;48.858;9.206;2022-11-18T06:48:58;96673.84;;;7.62;100.00
11314;BME280;5712;48.858;9.206;2022-11-18T06:51:25;96683.41;;;7.63;100.00
11314;BME280;5712;48.858;9.206;2022-11-18T06:53:52;96681.50;;;7.65;100.00
11314;BME280;5712;48.858;9.206;2022-11-18T06:56:21;96690.22;;;7.65;100.00
11314;BME280;5712;48.858;9.206;2022-11-18T06:58:52;96686.41;;;7.58;100.00
11314;BME280;5712;48.858;9.206;2022-11-18T07:01:22;96694.19;;;7.60;100.00
11314;BME280;5712;48.858;9.206;2022-11-18T07:03:50;96693.94;;;7.52;100.00
11314;BME280;5712;48.858;9.206;2022-11-18T07:06:18;96693.97;;;7.41;100.00
11314;BME280;5712;48.858;9.206;2022-11-18T07:08:46;96705.19;;;7.43;100.00
11314;BME280;5712;48.858;9.206;2022-11-18T07:11:14;96708.88;;;7.40;100.00
11314;BME280;5712;48.858;9.206;2022-11-18T07:13:42;96709.59;;;7.42;100.00
11314;BME280;5712;48.858;9.206;2022-11-18T07:16:10;96714.25;;;7.50;100.00
11314;BME280;5712;48.858;9.206;2022-11-18T07:18:40;96722.84;;;7.52;100.00
11314;BME280;5712;48.858;9.206;2022-11-18T07:21:09;96722.50;;;7.56;100.00
11314;BME280;5712;48.858;9.206;2022-11-18T07:23:36;96717.09;;;7.58;100.00
11314;BME280;5712;48.858;9.206;2022-11-18T07:26:03;96727.38;;;7.61;100.00
11314;BME280;5712;48.858;9.206;2022-11-18T07:28:30;96734.09;;;7.65;100.00
11314;BME280;5712;48.858;9.206;2022-11-18T07:31:01;96732.16;;;7.67;100.00
11314;BME280;5712;48.858;9.206;2022-11-18T07:33:28;96731.91;;;7.70;100.00
11314;BME280;5712;48.858;9.206;2022-11-18T07:35:59;96729.75;;;7.75;100.00
11314;BME280;5712;48.858;9.206;2022-11-18T07:38:25;96727.00;;;7.76;100.00
11314;BME280;5712;48.858;9.206;2022-11-18T07:40:52;96741.69;;;7.79;100.00
11314;BME280;5712;48.858;9.206;2022-11-18T07:43:19;96746.00;;;7.80;100.00
11314;BME280;5712;48.858;9.206;2022-11-18T07:45:45;96756.41;;;7.81;100.00
11314;BME280;5712;48.858;9.206;2022-11-18T07:48:12;96755.66;;;7.79;100.00
11314;BME280;5712;48.858;9.206;2022-11-18T07:50:39;96750.28;;;7.81;100.00
11314;BME280;5712;48.858;9.206;2022-11-18T07:53:07;96760.81;;;7.81;100.00
11314;BME280;5712;48.858;9.206;2022-11-18T07:55:33;96772.06;;;7.83;100.00
11314;BME280;5712;48.858;9.206;2022-11-18T07:58:00;96769.19;;;7.86;100.00
11314;BME280;5712;48.858;9.206;2022-11-18T08:00:27;96767.50;;;7.85;100.00
11314;BME280;5712;48.858;9.206;2022-11-18T08:02:53;96775.03;;;7.89;100.00
11314;BME280;5712;48.858;9.206;2022-11-18T08:05:20;96771.44;;;7.90;100.00
11314;BME280;5712;48.858;9.206;2022-11-18T08:07:46;96773.94;;;7.92;100.00
11314;BME280;5712;48.858;9.206;2022-11-18T08:10:15;96775.88;;;7.90;100.00
11314;BME280;5712;48.858;9.206;2022-11-18T08:12:42;96776.34;;;7.95;100.00
11314;BME280;5712;48.858;9.206;2022-11-18T08:15:09;96782.06;;;8.00;100.00
11314;BME280;5712;48.858;9.206;2022-11-18T08:17:36;96784.94;;;8.08;100.00
11314;BME280;5712;48.858;9.206;2022-11-18T08:20:02;96786.34;;;8.12;100.00
11314;BME280;5712;48.858;9.206;2022-11-18T08:22:29;96787.41;;;8.09;100.00
11314;BME280;5712;48.858;9.206;2022-11-18T08:24:56;96793.25;;;8.13;100.00
11314;BME280;5712;48.858;9.206;2022-11-18T08:27:24;96795.53;;;8.17;100.00
11314;BME280;5712;48.858;9.206;2022-11-18T08:29:50;96801.16;;;8.24;100.00
11314;BME280;5712;48.858;9.206;2022-11-18T08:32:17;96804.53;;;8.26;100.00
11314;BME280;5712;48.858;9.206;2022-11-18T08:34:44;96805.22;;;8.28;100.00
11314;BME280;5712;48.858;9.206;2022-11-18T08:37:10;96804.25;;;8.29;100.00
11314;BME280;5712;48.858;9.206;2022-11-18T08:39:37;96811.19;;;8.30;100.00
11314;BME280;5712;48.858;9.206;2022-11-18T08:42:04;96807.47;;;8.32;100.00
11314;BME280;5712;48.858;9.206;2022-11-18T08:44:32;96810.47;;;8.39;100.00
11314;BME280;5712;48.858;9.206;2022-11-18T08:46:59;96812.84;;;8.42;100.00
11314;BME280;5712;48.858;9.206;2022-11-18T08:49:26;96817.13;;;8.43;100.00
11314;BME280;5712;48.858;9.206;2022-11-18T08:51:52;96823.84;;;8.47;100.00
11314;BME280;5712;48.858;9.206;2022-11-18T08:54:19;96820.00;;;8.51;100.00
11314;BME280;5712;48.858;9.206;2022-11-18T08:56:46;96826.09;;;8.51;100.00
11314;BME280;5712;48.858;9.206;2022-11-18T08:59:14;96821.78;;;8.50;100.00
11314;BME280;5712;48.858;9.206;2022-11-18T09:01:42;96821.16;;;8.58;100.00
11314;BME280;5712;48.858;9.206;2022-11-18T09:04:09;96823.28;;;8.64;100.00
11314;BME280;5712;48.858;9.206;2022-11-18T09:06:36;96830.13;;;8.66;100.00
11314;BME280;5712;48.858;9.206;2022-11-18T09:09:05;96831.66;;;8.69;100.00
11314;BME280;5712;48.858;9.206;2022-11-18T09:11:32;96839.56;;;8.69;100.00
11314;BME280;5712;48.858;9.206;2022-11-18T09:13:59;96839.28;;;8.72;100.00
11314;BME280;5712;48.858;9.206;2022-11-18T09:16:27;96843.47;;;8.74;100.00
11314;BME280;5712;48.858;9.206;2022-11-18T09:18:56;96843.34;;;8.76;100.00
11314;BME280;5712;48.858;9.206;2022-11-18T09:21:23;96848.63;;;8.76;100.00
11314;BME280;5712;48.858;9.206;2022-11-18T09:23:50;96850.75;;;8.82;100.00
11314;BME280;5712;48.858;9.206;2022-11-18T09:26:18;96848.81;;;8.84;100.00
11314;BME280;5712;48.858;9.206;2022-11-18T09:28:46;96850.25;;;8.88;100.00
11314;BME280;5712;48.858;9.206;2022-11-18T09:31:14;96841.50;;;8.87;100.00
11314;BME280;5712;48.858;9.206;2022-11-18T09:33:41;96848.59;;;8.87;100.00
11314;BME280;5712;48.858;9.206;2022-11-18T09:36:13;96852.44;;;8.83;100.00
11314;BME280;5712;48.858;9.206;2022-11-18T09:38:41;96858.16;;;8.88;100.00
11314;BME280;5712;48.858;9.206;2022-11-18T09:41:19;96863.81;;;8.83;100.00
11314;BME280;5712;48.858;9.206;2022-11-18T09:43:58;96865.13;;;8.78;100.00
11314;BME280;5712;48.858;9.206;2022-11-18T09:46:32;96872.34;;;8.76;100.00
